createdAt,value
2023-04-01T00:02:20.735Z,12.85
2023-04-01T00:10:27.350Z,12.52
2023-04-01T00:18:35.413Z,10.77
2023-04-01T00:26:42.021Z,14.40
2023-04-01T00:34:50.203Z,10.38
2023-04-01T00:42:56.090Z,12.52
2023-04-01T00:51:07.995Z,10.90
2023-04-01T00:59:17.521Z,9.43
2023-04-01T01:07:36.221Z,8.63
2023-04-01T01:15:48.570Z,9.77
2023-04-01T01:24:17.510Z,9.95
2023-04-01T01:32:37.315Z,8.80
2023-04-01T01:40:53.055Z,10.35
2023-04-01T01:49:00.789Z,9.30
2023-04-01T01:57:13.369Z,12.55
2023-04-01T02:05:25.801Z,10.20
2023-04-01T02:13:42.239Z,16.48
2023-04-01T02:21:48.329Z,12.40
2023-04-01T02:29:57.099Z,15.10
2023-04-01T02:38:02.850Z,14.48
2023-04-01T02:46:10.950Z,13.82
2023-04-01T02:54:16.766Z,12.18
2023-04-01T03:02:25.384Z,13.15
2023-04-01T03:10:31.103Z,10.65
2023-04-01T03:18:39.216Z,12.15
2023-04-01T03:26:44.629Z,12.20
2023-04-01T03:34:53.193Z,11.40
2023-04-01T03:43:01.960Z,11.13
2023-04-01T03:51:13.611Z,12.48
2023-04-01T03:59:19.309Z,13.25
2023-04-01T04:07:28.289Z,13.82
2023-04-01T04:15:43.548Z,18.92
2023-04-01T04:23:51.924Z,13.30
2023-04-01T04:31:58.857Z,17.58
2023-04-01T04:40:07.888Z,16.20
2023-04-01T04:48:17.288Z,16.42
2023-04-01T04:56:27.360Z,15.18
2023-04-01T05:04:43.638Z,13.07
2023-04-01T05:12:52.636Z,14.43
2023-04-01T05:21:00.746Z,15.10
2023-04-01T05:29:09.095Z,16.08
2023-04-01T05:37:14.787Z,14.00
2023-04-01T05:45:22.883Z,12.20
2023-04-01T05:53:40.508Z,11.88
2023-04-01T06:01:48.794Z,14.07
2023-04-01T06:09:54.914Z,14.57
2023-04-01T06:18:25.539Z,15.02
2023-04-01T06:26:41.732Z,13.50
2023-04-01T06:35:06.563Z,15.07
2023-04-01T06:43:21.024Z,10.23
2023-04-01T06:52:00.285Z,11.30
2023-04-01T07:00:31.161Z,14.55
2023-04-01T07:08:44.673Z,15.67
2023-04-01T07:16:56.604Z,10.30
2023-04-01T07:25:09.474Z,10.10
2023-04-01T07:33:20.797Z,15.50
2023-04-01T07:41:36.364Z,15.82
2023-04-01T07:49:49.485Z,17.25
2023-04-01T07:58:06.102Z,12.37
2023-04-01T08:06:21.675Z,12.90
2023-04-01T08:14:36.365Z,10.70
2023-04-01T08:23:20.702Z,12.77
2023-04-01T08:31:35.976Z,13.52
2023-04-01T08:39:45.174Z,9.32
2023-04-01T08:48:20.203Z,6.82
2023-04-01T08:56:34.408Z,15.00
2023-04-01T09:05:02.126Z,12.35
2023-04-01T09:13:34.619Z,11.85
2023-04-01T09:22:02.909Z,8.65
2023-04-01T09:30:36.553Z,8.10
2023-04-01T09:38:54.074Z,5.70
2023-04-01T09:47:19.987Z,7.13
2023-04-01T09:56:00.506Z,9.63
2023-04-01T10:04:36.424Z,8.18
2023-04-01T10:13:15.748Z,10.32
2023-04-01T10:21:40.300Z,7.35
2023-04-01T10:30:22.861Z,10.18
2023-04-01T10:39:08.089Z,12.43
2023-04-01T10:47:53.567Z,8.50
2023-04-01T10:56:29.214Z,6.10
2023-04-01T11:05:41.038Z,9.65
2023-04-01T11:14:31.645Z,7.30
2023-04-01T11:23:09.371Z,7.55
2023-04-01T11:31:33.029Z,6.07
2023-04-01T11:39:45.862Z,8.60
2023-04-01T11:48:37.131Z,5.32
2023-04-01T11:56:55.927Z,5.05
2023-04-01T12:05:27.160Z,7.60
2023-04-01T12:13:43.927Z,8.13
2023-04-01T12:22:02.621Z,9.77
2023-04-01T12:30:29.215Z,7.80
2023-04-01T12:38:51.740Z,10.70
2023-04-01T12:47:15.690Z,9.35
2023-04-01T12:55:46.155Z,6.93
2023-04-01T13:04:20.345Z,8.98
2023-04-01T13:12:46.472Z,9.15
2023-04-01T13:21:02.207Z,7.55
2023-04-01T13:29:18.981Z,8.23
2023-04-01T13:37:36.407Z,7.32
2023-04-01T13:45:57.705Z,10.65
2023-04-01T13:54:35.780Z,13.05
2023-04-01T14:03:13.415Z,8.45
2023-04-01T14:11:28.839Z,9.40
2023-04-01T14:19:53.513Z,8.95
2023-04-01T14:28:07.664Z,12.55
2023-04-01T14:36:42.361Z,10.80
2023-04-01T14:45:06.039Z,13.65
2023-04-01T14:53:31.739Z,11.07
2023-04-01T15:01:49.328Z,12.73
2023-04-01T15:10:09.015Z,12.45
2023-04-01T15:18:21.780Z,14.10
2023-04-01T15:26:42.990Z,15.30
2023-04-01T15:34:58.268Z,18.48
2023-04-01T15:43:23.376Z,17.48
2023-04-01T15:51:45.444Z,20.50
2023-04-01T16:00:14.540Z,13.38
2023-04-01T16:08:46.546Z,12.60
2023-04-01T16:17:05.146Z,11.90
2023-04-01T16:25:24.500Z,12.00
2023-04-01T16:33:44.626Z,12.63
2023-04-01T16:41:56.185Z,11.98
2023-04-01T16:50:10.755Z,13.13
2023-04-01T16:58:22.775Z,11.85
2023-04-01T17:06:40.306Z,11.93
2023-04-01T17:14:50.469Z,15.38
2023-04-01T17:23:02.994Z,18.63
2023-04-01T17:31:18.304Z,19.38
2023-04-01T17:39:45.091Z,18.55
2023-04-01T17:47:58.490Z,20.55
2023-04-01T17:56:15.656Z,22.20
2023-04-01T18:04:41.410Z,26.88
2023-04-01T18:13:11.163Z,22.67
2023-04-01T18:21:23.103Z,17.42
2023-04-01T18:29:40.968Z,12.15
2023-04-01T18:37:50.655Z,10.23
2023-04-01T18:46:03.397Z,10.35
2023-04-01T18:54:15.849Z,7.43
2023-04-01T19:02:33.512Z,7.82
2023-04-01T19:10:50.520Z,6.18
2023-04-01T19:19:09.815Z,5.05
2023-04-01T19:27:25.819Z,6.15
2023-04-01T19:35:43.475Z,7.50
2023-04-01T19:43:58.351Z,6.10
2023-04-01T19:52:13.556Z,5.25
2023-04-01T20:00:26.890Z,6.93
2023-04-01T20:08:41.236Z,4.90
2023-04-01T20:17:00.170Z,7.97
2023-04-01T20:25:16.756Z,5.40
2023-04-01T20:33:53.185Z,5.53
2023-04-01T20:42:26.513Z,5.93
2023-04-01T20:50:36.035Z,8.55
2023-04-01T20:58:54.841Z,6.10
2023-04-01T21:07:32.737Z,6.20
2023-04-01T21:15:52.037Z,3.75
2023-04-01T21:24:27.381Z,3.75
2023-04-01T21:33:00.441Z,3.75
2023-04-01T21:41:24.881Z,5.37
2023-04-01T21:50:00.604Z,1.95
2023-04-01T21:58:35.563Z,5.32
2023-04-01T22:06:46.686Z,3.17
2023-04-01T22:14:59.872Z,2.33
2023-04-01T22:23:25.012Z,1.50
2023-04-01T22:31:36.971Z,1.30
2023-04-01T22:40:03.667Z,1.65
2023-04-01T22:48:16.550Z,1.65
2023-04-01T22:56:31.000Z,1.17
2023-04-01T23:04:43.270Z,1.83
2023-04-01T23:12:54.165Z,2.08
2023-04-01T23:21:15.998Z,1.23
2023-04-01T23:29:27.072Z,2.10
2023-04-01T23:37:32.690Z,3.60
2023-04-01T23:45:40.818Z,1.45
2023-04-01T23:53:49.072Z,3.90
